Clayton, MT

7:09 AM MST on January 31, 2015 (GMT -0700)
Sidney-Richland Municipal | Change Station
CLOSE
Current Station
Airport
Location: Sidney-Richland,
Elevation: 1985 ft
Nearby Weather Stations
Active Advisory: Winter Weather Advisory

Elev 1985 ft 47.71 °N, 104.19 °W | Updated 14 minutes ago

Overcast
Overcast
25 °F
Feels Like 14 °F
N
12
Wind Variable Wind from ENE

Today
High -- | Low -- °F
--% Chance of Precip.
Yesterday
High -- | Low -- °F
Precip. -- in
7:31 AM 5:00 PM
Waxing Gibbous, 90% visible
Pressure 30.18 in
Visibility 8.0 miles
Clouds Overcast 600 ft
Windchill 14 °F
Dew Point 21 °F
Humidity 86%
Rainfall 0.00 in
Snow Depth Not available.
UV 0 out of 12
Pollen .10 out of 12
Air Quality Not available.
Flu Activity Not available.
METAR KSDY 311355Z AUTO 07010KT 8SM OVC006 M04/M06 A3018 RMK AO1

More Conditions Fewer Conditions

Pressure 30.18 in
Visibility 8.0 miles
Clouds Overcast 600 ft
Windchill 14 °F
Dew Point 21 °F
Humidity 86%
Rainfall 0.00 in
Snow Depth Not available.
UV 0 out of 12
Pollen .10 out of 12
Air Quality Not available.
Flu Activity Not available.
METAR KSDY 311355Z AUTO 07010KT 8SM OVC006 M04/M06 A3018 RMK AO1

More Conditions Fewer Conditions

10-Day Weather Forecast

Almanac

Astronomy

Jan. 31, 2015 Rise Set
Actual Time
Civil Twilight
Nautical Twilight
Astronomical Twilight
Moon
Length of Visible Light
Length of Day
Tomorrow will be .
, % of the Moon is Illuminated

Today's Extremes

State Highs State Lows

Community

WunderPhotos

Upload Photos

1,792,058 photos uploaded!

WunderBlogs® & News

Nearby

Air Quality

  Air Quality AQ Index Pollutant
Not available.

Snow Depth

Station Depth Elevation

Earthquake Activity

City Distance Mag. Time & Date
Minimum magnitude displayed is 2.5.

Coastal Water Temperatures

Place Temperature

Nearby Weather Stations